Time;durP1;ratioP1;P1;durP2;ratioP2;P2;SDS_P1;SDS_P2;PMS_P1;PMS_P2;Temp;Humidity;BMP_temperature;BMP_pressure;BME280_temperature;BME280_humidity;BME280_pressure;Samples;Min_cycle;Max_cycle;Signal;HPM_P1;HPM_P2
2023/09/13 00:02:05;;;;;;;7.10;2.47;;;18.80;99.90;;;;;;5031981;28;20035;-75
2023/09/13 00:04:31;;;;;;;7.03;2.25;;;18.80;99.90;;;;;;5068446;28;20044;-75
2023/09/13 00:06:56;;;;;;;6.00;2.05;;;18.70;99.90;;;;;;5032953;28;20052;-74
2023/09/13 00:09:22;;;;;;;5.85;2.40;;;18.70;99.90;;;;;;5023937;28;20096;-74
2023/09/13 00:11:48;;;;;;;7.13;2.22;;;18.60;99.90;;;;;;5051155;28;20052;-74
2023/09/13 00:14:14;;;;;;;5.60;2.10;;;18.50;99.90;;;;;;5047973;28;20048;-75
2023/09/13 00:16:40;;;;;;;6.78;1.95;;;18.50;99.90;;;;;;5032276;28;20503;-74
2023/09/13 00:19:06;;;;;;;5.47;2.13;;;18.40;99.90;;;;;;5024802;28;20147;-75
2023/09/13 00:21:32;;;;;;;5.45;1.80;;;18.40;99.90;;;;;;5031582;28;20499;-74
2023/09/13 00:23:59;;;;;;;7.13;1.92;;;18.40;99.90;;;;;;5040610;28;20052;-74
2023/09/13 00:26:25;;;;;;;7.75;1.80;;;18.30;99.90;;;;;;5053420;28;20045;-74
2023/09/13 00:28:51;;;;;;;5.95;1.70;;;18.30;99.90;;;;;;5034551;28;20143;-74
2023/09/13 00:31:17;;;;;;;5.25;1.70;;;18.30;99.90;;;;;;5031526;28;20094;-74
2023/09/13 00:33:43;;;;;;;11.55;2.03;;;18.30;99.90;;;;;;5024596;28;20048;-74
2023/09/13 00:36:09;;;;;;;8.63;1.80;;;18.30;99.90;;;;;;5063050;28;20055;-74
2023/09/13 00:38:35;;;;;;;3.97;1.70;;;18.30;99.90;;;;;;5035897;28;20066;-74
2023/09/13 00:41:01;;;;;;;8.50;1.80;;;18.20;99.90;;;;;;5046508;28;20048;-73
2023/09/13 00:43:26;;;;;;;6.82;1.73;;;18.20;99.90;;;;;;5029570;28;20522;-75
2023/09/13 00:45:52;;;;;;;5.57;1.60;;;18.20;99.90;;;;;;5061197;28;20152;-74
2023/09/13 00:48:18;;;;;;;5.93;1.73;;;18.20;99.90;;;;;;5015347;28;20056;-73
2023/09/13 00:50:47;;;;;;;7.43;1.80;;;18.20;99.90;;;;;;5047363;28;20072;-74
2023/09/13 00:53:13;;;;;;;6.63;1.70;;;18.20;99.90;;;;;;5033059;28;20048;-75
2023/09/13 00:55:40;;;;;;;3.42;1.30;;;18.10;99.90;;;;;;5051468;28;20059;-74
2023/09/13 00:58:06;;;;;;;5.85;2.00;;;18.10;99.90;;;;;;5049915;28;20142;-74
2023/09/13 01:00:33;;;;;;;5.32;1.70;;;18.10;99.90;;;;;;5043820;28;20062;-74
2023/09/13 01:03:00;;;;;;;10.80;1.90;;;18.10;99.90;;;;;;5064619;28;20052;-75
2023/09/13 01:05:26;;;;;;;9.63;1.70;;;18.10;99.90;;;;;;5046935;28;20036;-74
2023/09/13 01:07:51;;;;;;;6.97;2.00;;;18.10;99.90;;;;;;5013626;28;20372;-76
2023/09/13 01:10:19;;;;;;;7.13;2.03;;;18.10;99.90;;;;;;5064006;28;20032;-75
2023/09/13 01:12:45;;;;;;;8.65;1.92;;;18.00;99.90;;;;;;5047575;28;20057;-75
2023/09/13 01:15:12;;;;;;;7.60;1.65;;;18.00;99.90;;;;;;4988172;28;20057;-74
2023/09/13 01:18:09;;;;;;;8.88;1.90;;;17.90;99.90;;;;;;5025691;28;20037;-75
2023/09/13 01:21:05;;;;;;;10.45;1.90;;;17.80;99.90;;;;;;4994693;28;20557;-74
2023/09/13 01:23:55;;;;;;;9.02;2.15;;;17.80;99.90;;;;;;5009997;28;20090;-74
2023/09/13 01:26:58;;;;;;;8.93;1.85;;;17.70;99.90;;;;;;5024104;28;20037;-75
2023/09/13 01:29:25;;;;;;;8.10;2.40;;;17.70;99.90;;;;;;5001925;28;20192;-74
2023/09/13 01:31:52;;;;;;;7.28;1.63;;;17.60;99.90;;;;;;5011017;28;20842;-74
2023/09/13 01:34:18;;;;;;;6.18;1.55;;;17.60;99.90;;;;;;5027086;28;20049;-75
2023/09/13 01:36:44;;;;;;;6.57;1.75;;;17.60;99.90;;;;;;5004131;28;20053;-74
2023/09/13 01:39:10;;;;;;;4.43;1.60;;;17.50;99.90;;;;;;5009056;28;20053;-73
2023/09/13 01:42:03;;;;;;;5.50;1.77;;;17.50;99.90;;;;;;5010708;28;20586;-74
2023/09/13 01:44:30;;;;;;;10.48;1.92;;;17.40;99.90;;;;;;5010028;28;20046;-74
2023/09/13 01:46:56;;;;;;;6.40;1.90;;;17.40;99.90;;;;;;5034989;28;20128;-74
2023/09/13 01:49:23;;;;;;;6.82;2.40;;;17.30;99.90;;;;;;5049055;28;20491;-75
2023/09/13 01:51:50;;;;;;;7.55;2.33;;;17.30;99.90;;;;;;5012831;28;20040;-76
2023/09/13 01:54:19;;;;;;;7.53;2.22;;;17.30;99.90;;;;;;5067081;28;20059;-76
2023/09/13 01:56:45;;;;;;;7.15;1.90;;;17.30;99.90;;;;;;5034111;28;20565;-75
2023/09/13 01:59:11;;;;;;;5.18;2.05;;;17.20;99.90;;;;;;5047494;28;20048;-75
2023/09/13 02:01:37;;;;;;;7.60;2.20;;;17.20;99.90;;;;;;5050747;28;20044;-76
2023/09/13 02:04:05;;;;;;;4.65;1.80;;;17.20;99.90;;;;;;5049127;28;20050;-75
2023/09/13 02:06:31;;;;;;;4.85;1.73;;;17.20;99.90;;;;;;5049400;28;20041;-75
2023/09/13 02:08:57;;;;;;;4.78;1.58;;;17.20;99.90;;;;;;5046406;28;20050;-75
2023/09/13 02:11:24;;;;;;;8.27;2.30;;;17.20;99.90;;;;;;5064834;28;20483;-75
2023/09/13 02:13:50;;;;;;;5.22;2.10;;;17.10;99.90;;;;;;5028580;28;20386;-75
2023/09/13 02:16:20;;;;;;;8.85;2.78;;;17.20;99.90;;;;;;5048006;28;20044;-74
2023/09/13 02:18:46;;;;;;;5.93;2.08;;;17.20;99.90;;;;;;5046253;28;20055;-75
2023/09/13 02:21:12;;;;;;;9.75;2.28;;;17.20;99.90;;;;;;5060373;28;20048;-76
2023/09/13 02:23:38;;;;;;;6.10;1.88;;;17.20;99.90;;;;;;5034260;28;20399;-75
2023/09/13 02:26:04;;;;;;;7.50;2.28;;;17.20;99.90;;;;;;5046126;28;20052;-75
2023/09/13 02:28:29;;;;;;;6.45;2.08;;;17.20;99.90;;;;;;5063720;28;20048;-75
2023/09/13 02:30:55;;;;;;;4.40;1.70;;;17.20;99.90;;;;;;5044548;28;20044;-75
2023/09/13 02:33:21;;;;;;;4.60;1.52;;;17.10;99.90;;;;;;5016887;28;20040;-74
2023/09/13 02:35:47;;;;;;;6.65;1.63;;;17.10;99.90;;;;;;5044651;28;20084;-75
2023/09/13 02:38:13;;;;;;;5.75;1.70;;;17.10;99.90;;;;;;5047220;28;20509;-75
2023/09/13 02:40:38;;;;;;;6.60;1.60;;;17.00;99.90;;;;;;5045117;28;20039;-75
2023/09/13 02:43:04;;;;;;;5.20;1.60;;;17.00;99.90;;;;;;5045063;28;20086;-75
2023/09/13 02:45:30;;;;;;;4.13;1.60;;;17.00;99.90;;;;;;5064671;28;20039;-75
2023/09/13 02:48:02;;;;;;;6.28;1.75;;;17.00;99.90;;;;;;5056748;28;20048;-75
2023/09/13 02:50:28;;;;;;;7.20;1.63;;;17.00;99.90;;;;;;5035159;28;20064;-74
2023/09/13 02:52:53;;;;;;;6.05;1.90;;;17.00;99.90;;;;;;5044317;28;20047;-75
2023/09/13 02:55:19;;;;;;;5.65;1.83;;;16.90;99.90;;;;;;5014740;28;20505;-75
2023/09/13 02:57:45;;;;;;;4.88;1.90;;;16.90;99.90;;;;;;5048448;28;20110;-74
2023/09/13 03:00:11;;;;;;;6.00;2.10;;;16.90;99.90;;;;;;5049883;28;20052;-75
2023/09/13 03:02:37;;;;;;;8.32;2.28;;;16.90;99.90;;;;;;5031090;28;20041;-76
2023/09/13 03:05:05;;;;;;;4.97;1.80;;;17.00;99.90;;;;;;5027478;28;20051;-77
2023/09/13 03:07:31;;;;;;;6.03;1.70;;;16.90;99.90;;;;;;5031845;28;20051;-74
2023/09/13 03:09:58;;;;;;;6.32;1.98;;;16.90;99.90;;;;;;5061024;28;20138;-74
2023/09/13 03:12:24;;;;;;;5.90;2.00;;;16.90;99.90;;;;;;5025567;28;20557;-75
2023/09/13 03:14:50;;;;;;;7.20;2.08;;;16.90;99.90;;;;;;5017887;28;20044;-75
2023/09/13 03:17:15;;;;;;;9.52;2.05;;;16.90;99.90;;;;;;5065492;28;20727;-74
2023/09/13 03:19:42;;;;;;;6.00;2.20;;;16.90;99.90;;;;;;5046112;28;20976;-75
2023/09/13 03:22:07;;;;;;;6.78;2.10;;;16.90;99.90;;;;;;5029362;28;20499;-76
2023/09/13 03:24:33;;;;;;;7.72;2.38;;;16.90;99.90;;;;;;5046131;28;20083;-74
2023/09/13 03:26:59;;;;;;;7.28;2.00;;;16.90;99.90;;;;;;5030678;28;20180;-74
2023/09/13 03:29:25;;;;;;;8.68;1.90;;;16.80;99.90;;;;;;5067365;28;20540;-75
2023/09/13 03:31:50;;;;;;;9.93;2.60;;;16.80;99.90;;;;;;5001650;28;20059;-75
2023/09/13 03:34:16;;;;;;;9.27;1.80;;;16.80;99.90;;;;;;5047161;28;20086;-75
2023/09/13 03:36:43;;;;;;;7.72;2.00;;;16.80;99.90;;;;;;5033913;28;20699;-74
2023/09/13 03:39:09;;;;;;;8.30;2.08;;;16.70;99.90;;;;;;5009318;28;20063;-74
2023/09/13 03:41:34;;;;;;;7.95;1.98;;;16.60;99.90;;;;;;5052630;28;20053;-73
2023/09/13 03:44:00;;;;;;;5.80;2.00;;;16.50;99.90;;;;;;5046211;28;20044;-74
2023/09/13 03:46:27;;;;;;;10.18;2.55;;;16.40;99.90;;;;;;5045486;28;20043;-74
2023/09/13 03:48:53;;;;;;;7.95;1.90;;;16.30;99.90;;;;;;5034993;28;20051;-75
2023/09/13 03:51:19;;;;;;;9.05;2.95;;;16.30;99.90;;;;;;5027713;28;20041;-75
2023/09/13 03:53:45;;;;;;;9.40;1.83;;;16.20;99.90;;;;;;5019649;28;20399;-74
2023/09/13 03:56:11;;;;;;;10.80;3.13;;;16.20;99.90;;;;;;5042749;28;20044;-75
2023/09/13 03:58:38;;;;;;;14.25;2.35;;;16.20;99.90;;;;;;5033550;28;20463;-75
2023/09/13 04:01:06;;;;;;;12.98;2.53;;;16.20;99.90;;;;;;5047900;28;20737;-74
2023/09/13 04:03:32;;;;;;;11.70;2.20;;;16.10;99.90;;;;;;5000057;28;20028;-74
2023/09/13 04:05:59;;;;;;;13.88;2.80;;;16.00;99.90;;;;;;5044794;28;20048;-75
2023/09/13 04:08:25;;;;;;;12.48;2.80;;;16.00;99.90;;;;;;5046746;28;20125;-75
2023/09/13 04:10:51;;;;;;;12.55;2.67;;;15.90;99.90;;;;;;5049393;28;20048;-76
2023/09/13 04:13:17;;;;;;;16.40;2.80;;;15.90;99.90;;;;;;5033750;28;20078;-76
2023/09/13 04:15:46;;;;;;;10.75;3.22;;;15.80;99.90;;;;;;5067412;28;20059;-77
2023/09/13 04:18:13;;;;;;;12.90;2.60;;;15.80;99.90;;;;;;5031373;28;20354;-76
2023/09/13 04:20:38;;;;;;;12.20;2.70;;;15.70;99.90;;;;;;5027687;28;20151;-76
2023/09/13 04:23:05;;;;;;;13.40;3.00;;;15.70;99.90;;;;;;5048827;28;20040;-77
2023/09/13 04:25:30;;;;;;;12.95;3.42;;;15.60;99.90;;;;;;5051965;28;20094;-76
2023/09/13 04:27:56;;;;;;;12.68;2.97;;;15.60;99.90;;;;;;5046662;28;20041;-76
2023/09/13 04:30:22;;;;;;;12.15;2.85;;;15.50;99.90;;;;;;5064933;28;20055;-76
2023/09/13 04:32:49;;;;;;;14.07;3.08;;;15.40;99.90;;;;;;5031120;28;20463;-76
2023/09/13 04:35:15;;;;;;;12.15;3.22;;;15.40;99.90;;;;;;5024095;28;20052;-76
2023/09/13 04:37:42;;;;;;;8.95;2.83;;;15.40;99.90;;;;;;5032748;28;20051;-76
2023/09/13 04:40:08;;;;;;;12.68;3.65;;;15.30;99.90;;;;;;5045781;28;20052;-76
2023/09/13 04:42:36;;;;;;;10.05;3.00;;;15.30;99.90;;;;;;5030047;28;20586;-77
2023/09/13 04:45:03;;;;;;;12.50;3.08;;;15.20;99.90;;;;;;5035346;28;20048;-76
2023/09/13 04:47:29;;;;;;;7.20;3.00;;;15.10;99.90;;;;;;5052367;28;20040;-76
2023/09/13 04:49:54;;;;;;;11.73;2.65;;;15.00;99.90;;;;;;5045537;28;20049;-76
2023/09/13 04:52:20;;;;;;;8.82;2.60;;;15.00;99.90;;;;;;5031986;28;20134;-76
2023/09/13 04:54:46;;;;;;;7.93;2.55;;;15.00;99.90;;;;;;5035858;28;20048;-75
2023/09/13 04:57:12;;;;;;;7.88;2.50;;;15.00;99.90;;;;;;5051379;28;20047;-75
2023/09/13 04:59:48;;;;;;;6.90;2.53;;;14.90;99.90;;;;;;5033470;28;20060;-74
2023/09/13 05:02:14;;;;;;;10.13;2.60;;;14.90;99.90;;;;;;5040205;28;20044;-75
2023/09/13 05:04:40;;;;;;;8.88;3.03;;;14.90;99.90;;;;;;5053067;28;20079;-75
2023/09/13 05:07:06;;;;;;;6.63;3.15;;;14.80;99.90;;;;;;5036099;28;20158;-75
2023/09/13 05:09:32;;;;;;;8.13;3.10;;;14.80;99.90;;;;;;5049500;28;20040;-74
2023/09/13 05:11:59;;;;;;;11.35;3.28;;;14.80;99.90;;;;;;5040798;28;20070;-76
2023/09/13 05:14:26;;;;;;;13.50;2.92;;;14.80;99.90;;;;;;5012573;28;20053;-75
2023/09/13 05:16:52;;;;;;;11.95;2.83;;;14.80;99.90;;;;;;5066530;28;20083;-75
2023/09/13 05:19:20;;;;;;;9.52;2.50;;;14.80;99.90;;;;;;5047580;28;20086;-75
2023/09/13 05:21:47;;;;;;;10.57;2.60;;;14.80;99.90;;;;;;5046926;28;20049;-75
2023/09/13 05:24:13;;;;;;;9.82;2.83;;;14.80;99.90;;;;;;5030840;28;20048;-75
2023/09/13 05:26:39;;;;;;;9.85;2.50;;;14.80;99.90;;;;;;5045715;28;20044;-74
2023/09/13 05:29:05;;;;;;;9.80;2.75;;;14.80;99.90;;;;;;5049164;28;20052;-75
2023/09/13 05:31:31;;;;;;;8.57;2.85;;;14.80;99.90;;;;;;5026448;28;20052;-75
2023/09/13 05:33:57;;;;;;;5.68;2.60;;;14.80;99.90;;;;;;5046175;28;20048;-75
2023/09/13 05:36:23;;;;;;;7.03;2.10;;;14.80;99.90;;;;;;5038480;28;20047;-76
2023/09/13 05:38:49;;;;;;;4.40;2.00;;;14.80;99.90;;;;;;5046702;28;20059;-76
2023/09/13 05:41:15;;;;;;;8.30;2.10;;;14.80;99.90;;;;;;5063833;28;20073;-75
2023/09/13 05:43:42;;;;;;;10.50;2.50;;;14.80;99.90;;;;;;5045429;28;20068;-75
2023/09/13 05:46:09;;;;;;;9.68;2.55;;;14.80;99.90;;;;;;5052835;28;20043;-74
2023/09/13 05:48:35;;;;;;;12.45;3.00;;;14.80;99.90;;;;;;5045667;28;20093;-74
2023/09/13 05:51:02;;;;;;;8.68;2.47;;;14.90;99.90;;;;;;5050469;28;20056;-75
2023/09/13 05:53:29;;;;;;;8.57;2.60;;;14.90;99.90;;;;;;5066290;28;20036;-75
2023/09/13 05:55:54;;;;;;;6.60;2.55;;;14.90;99.90;;;;;;5033158;28;20060;-75
2023/09/13 05:58:22;;;;;;;7.63;1.98;;;14.90;99.90;;;;;;5045361;28;20509;-74
2023/09/13 06:00:49;;;;;;;7.55;2.22;;;14.90;99.90;;;;;;5026065;28;20540;-74
2023/09/13 06:03:19;;;;;;;7.18;2.13;;;14.90;99.90;;;;;;5047722;28;20517;-74
2023/09/13 06:05:50;;;;;;;6.05;1.95;;;14.90;99.90;;;;;;5049015;28;20111;-74
2023/09/13 06:08:17;;;;;;;7.00;2.33;;;15.10;99.90;;;;;;5025796;28;20087;-76
2023/09/13 06:10:46;;;;;;;5.57;2.30;;;15.00;99.90;;;;;;5065701;28;20808;-75
2023/09/13 06:13:12;;;;;;;7.60;2.22;;;15.00;99.90;;;;;;5064725;28;20059;-75
2023/09/13 06:15:38;;;;;;;7.47;2.20;;;15.00;99.90;;;;;;5024231;28;20056;-75
2023/09/13 06:18:04;;;;;;;10.23;1.95;;;15.10;99.90;;;;;;5042364;28;20047;-75
2023/09/13 06:20:30;;;;;;;8.52;1.95;;;15.10;99.90;;;;;;4994968;28;20072;-75
2023/09/13 06:22:56;;;;;;;6.85;1.80;;;15.20;99.90;;;;;;5012802;28;20179;-76
2023/09/13 06:25:22;;;;;;;8.52;1.73;;;15.20;99.90;;;;;;5062733;28;20115;-75
2023/09/13 06:27:48;;;;;;;7.28;1.60;;;15.20;99.90;;;;;;5049450;28;20076;-75
2023/09/13 06:30:14;;;;;;;6.22;1.40;;;15.30;99.90;;;;;;5042453;28;20047;-76
2023/09/13 06:32:40;;;;;;;5.35;1.30;;;15.30;99.90;;;;;;5045728;28;20127;-73
2023/09/13 06:35:10;;;;;;;5.38;1.30;;;15.30;99.90;;;;;;5043374;28;20447;-76
2023/09/13 06:37:36;;;;;;;5.30;1.60;;;15.30;99.90;;;;;;5043788;28;20079;-75
2023/09/13 06:40:03;;;;;;;4.28;1.33;;;15.30;99.90;;;;;;5030346;28;20681;-76
2023/09/13 06:42:29;;;;;;;7.10;1.40;;;15.30;99.90;;;;;;5032809;28;20055;-75
2023/09/13 06:44:56;;;;;;;4.60;1.58;;;15.30;99.90;;;;;;5044906;28;20378;-75
2023/09/13 06:47:21;;;;;;;8.07;1.80;;;15.40;99.90;;;;;;5065586;28;20109;-76
2023/09/13 06:49:47;;;;;;;7.88;1.65;;;15.30;99.90;;;;;;5006281;28;20041;-76
2023/09/13 06:52:13;;;;;;;7.38;1.95;;;15.40;99.90;;;;;;5049169;28;20606;-76
2023/09/13 06:54:39;;;;;;;5.85;1.50;;;15.40;99.90;;;;;;5046051;28;20051;-76
2023/09/13 06:57:08;;;;;;;4.60;1.27;;;15.50;99.90;;;;;;5030138;28;20044;-76
2023/09/13 06:59:34;;;;;;;6.00;1.58;;;15.50;99.90;;;;;;5020826;28;20041;-76
2023/09/13 07:01:59;;;;;;;6.53;1.30;;;15.50;99.90;;;;;;5030087;28;20455;-76
2023/09/13 07:04:25;;;;;;;4.97;1.45;;;15.50;99.90;;;;;;5066704;28;20077;-75
2023/09/13 07:06:51;;;;;;;5.05;1.50;;;15.60;99.90;;;;;;5032794;28;20060;-76
2023/09/13 07:09:18;;;;;;;7.95;1.10;;;15.60;99.90;;;;;;5066869;28;20040;-76
2023/09/13 07:11:44;;;;;;;3.25;1.20;;;15.70;99.90;;;;;;5051716;28;20040;-76
2023/09/13 07:14:10;;;;;;;4.85;1.58;;;15.70;99.90;;;;;;5047287;28;20406;-75
2023/09/13 07:16:37;;;;;;;4.65;1.40;;;15.80;99.90;;;;;;5018026;28;20052;-76
2023/09/13 07:19:03;;;;;;;5.55;1.85;;;15.80;99.90;;;;;;5028568;28;20595;-77
2023/09/13 07:21:29;;;;;;;4.90;1.55;;;15.90;99.90;;;;;;5063834;28;20045;-76
2023/09/13 07:23:55;;;;;;;7.35;1.95;;;15.90;99.90;;;;;;5048647;28;20067;-76
2023/09/13 07:26:21;;;;;;;8.40;2.67;;;16.00;99.90;;;;;;5063651;28;20071;-76
2023/09/13 07:28:46;;;;;;;10.45;2.20;;;16.00;99.90;;;;;;5029403;28;20063;-76
2023/09/13 07:31:12;;;;;;;9.00;2.03;;;16.00;99.90;;;;;;5030240;28;20561;-76
2023/09/13 07:33:38;;;;;;;11.05;2.42;;;16.00;99.90;;;;;;5012578;28;20298;-76
2023/09/13 07:36:04;;;;;;;8.55;2.30;;;16.00;99.90;;;;;;5045096;28;20529;-76
2023/09/13 07:38:30;;;;;;;9.43;2.28;;;16.10;99.90;;;;;;5045484;28;20044;-76
2023/09/13 07:40:59;;;;;;;13.90;2.78;;;16.10;99.90;;;;;;5063480;28;20382;-77
2023/09/13 07:43:25;;;;;;;14.32;2.47;;;16.20;99.90;;;;;;5047586;28;20075;-76
2023/09/13 07:45:51;;;;;;;11.52;2.47;;;16.30;99.90;;;;;;5049895;28;20044;-77
2023/09/13 07:48:16;;;;;;;14.52;3.00;;;16.30;99.90;;;;;;5032417;28;20105;-76
2023/09/13 07:50:42;;;;;;;10.32;2.83;;;16.30;99.90;;;;;;5040066;28;20122;-76
2023/09/13 07:53:12;;;;;;;14.02;3.03;;;16.20;99.90;;;;;;5050018;28;20563;-77
2023/09/13 07:55:39;;;;;;;12.25;3.65;;;16.20;99.90;;;;;;5051738;28;20028;-76
2023/09/13 07:58:06;;;;;;;10.18;3.55;;;16.10;99.90;;;;;;5053884;28;20534;-77
2023/09/13 08:00:32;;;;;;;9.85;3.63;;;16.10;99.90;;;;;;5051325;28;20178;-76
2023/09/13 08:03:02;;;;;;;9.98;2.95;;;16.00;99.90;;;;;;5047763;28;20091;-76
2023/09/13 08:05:28;;;;;;;10.35;3.25;;;15.90;99.90;;;;;;5049921;28;20115;-76
2023/09/13 08:08:00;;;;;;;11.30;3.42;;;15.90;99.90;;;;;;5052142;28;20129;-77
2023/09/13 08:10:26;;;;;;;9.30;3.42;;;16.00;99.90;;;;;;5033951;28;20746;-76
2023/09/13 08:12:52;;;;;;;8.75;3.25;;;16.10;99.90;;;;;;5048805;28;20043;-77
2023/09/13 08:15:18;;;;;;;8.75;3.10;;;16.20;99.90;;;;;;5047989;28;20052;-76
2023/09/13 08:17:44;;;;;;;7.45;3.03;;;16.40;99.90;;;;;;5033424;28;20055;-76
2023/09/13 08:20:10;;;;;;;7.63;2.75;;;16.50;99.90;;;;;;5007034;28;20072;-76
2023/09/13 08:22:37;;;;;;;5.85;2.50;;;16.60;99.90;;;;;;5048298;28;20549;-76
2023/09/13 08:25:04;;;;;;;6.43;3.03;;;16.80;99.70;;;;;;5032267;28;20085;-76
2023/09/13 08:27:30;;;;;;;7.80;3.00;;;17.00;99.00;;;;;;5039515;28;20049;-77
2023/09/13 08:29:56;;;;;;;4.88;2.80;;;17.20;98.10;;;;;;5050607;28;20040;-76
2023/09/13 08:32:23;;;;;;;10.32;3.22;;;17.40;97.40;;;;;;5027766;28;20090;-77
2023/09/13 08:34:49;;;;;;;10.95;3.08;;;17.70;96.70;;;;;;5044968;28;20062;-77
2023/09/13 08:37:15;;;;;;;6.53;2.70;;;18.00;95.70;;;;;;5052186;28;20954;-77
2023/09/13 08:39:41;;;;;;;4.72;2.50;;;18.20;94.00;;;;;;5048714;28;20052;-77
2023/09/13 08:42:07;;;;;;;5.05;2.63;;;18.40;92.80;;;;;;5029073;28;20052;-77
2023/09/13 08:44:35;;;;;;;5.10;2.90;;;18.60;91.70;;;;;;5029176;28;20063;-77
2023/09/13 08:47:02;;;;;;;8.65;3.22;;;18.90;90.20;;;;;;5022342;28;20044;-78
2023/09/13 08:49:29;;;;;;;6.00;3.15;;;19.20;87.90;;;;;;5026361;28;20055;-78
2023/09/13 08:51:56;;;;;;;6.07;3.42;;;19.50;84.10;;;;;;5044870;28;20044;-78
2023/09/13 08:54:22;;;;;;;6.05;3.63;;;19.80;79.80;;;;;;5049748;28;20513;-78
2023/09/13 08:56:48;;;;;;;6.75;4.03;;;20.00;72.40;;;;;;5034636;28;20044;-78
2023/09/13 08:59:17;;;;;;;7.28;4.15;;;20.10;65.50;;;;;;5067175;28;20051;-78
2023/09/13 09:01:50;;;;;;;8.02;4.63;;;20.20;63.50;;;;;;5049810;28;20556;-78
2023/09/13 09:04:18;;;;;;;6.97;4.13;;;20.30;58.10;;;;;;5053834;28;20491;-78
2023/09/13 09:06:45;;;;;;;5.68;3.90;;;20.50;55.20;;;;;;5064940;28;20056;-78
2023/09/13 09:09:19;;;;;;;6.53;4.25;;;20.70;52.70;;;;;;5034156;28;20364;-78
2023/09/13 09:11:51;;;;;;;7.03;3.63;;;21.00;49.70;;;;;;5050473;28;20036;-78
2023/09/13 09:14:19;;;;;;;5.65;3.25;;;21.30;46.00;;;;;;5030254;28;20050;-78
2023/09/13 09:16:48;;;;;;;5.13;2.70;;;21.50;39.60;;;;;;5036838;28;20044;-78
2023/09/13 09:19:14;;;;;;;5.10;2.70;;;21.80;36.20;;;;;;5064083;28;20067;-78
2023/09/13 09:21:40;;;;;;;6.40;2.88;;;22.10;33.20;;;;;;5039551;28;20066;-78
2023/09/13 09:24:06;;;;;;;7.55;2.70;;;22.20;28.00;;;;;;5039151;28;20786;-78
2023/09/13 09:26:35;;;;;;;6.18;2.50;;;22.40;24.90;;;;;;5062502;28;20044;-79
2023/09/13 09:29:11;;;;;;;6.13;2.42;;;22.50;16.50;;;;;;5047082;28;20060;-78
2023/09/13 09:31:39;;;;;;;5.05;2.50;;;22.60;1.00;;;;;;5048621;28;20172;-78
2023/09/13 09:34:05;;;;;;;3.92;2.10;;;22.70;1.00;;;;;;5035453;28;20052;-78
2023/09/13 09:36:42;;;;;;;6.60;2.65;;;22.90;1.00;;;;;;5049379;28;20064;-79
2023/09/13 09:39:15;;;;;;;5.63;2.40;;;23.10;1.00;;;;;;5046736;28;20051;-78
2023/09/13 09:41:41;;;;;;;5.93;2.22;;;23.10;1.00;;;;;;5028720;28;20117;-77
2023/09/13 09:44:07;;;;;;;3.65;1.80;;;23.30;1.00;;;;;;5031530;28;20435;-79
2023/09/13 09:46:33;;;;;;;6.65;2.20;;;23.30;1.00;;;;;;5044647;28;20504;-78
2023/09/13 09:49:04;;;;;;;5.47;2.42;;;23.40;1.00;;;;;;5062450;28;20048;-78
2023/09/13 09:51:32;;;;;;;4.45;2.20;;;23.40;1.00;;;;;;5004562;28;20105;-79
2023/09/13 09:53:58;;;;;;;5.63;2.35;;;23.50;1.00;;;;;;5045003;28;20037;-78
2023/09/13 09:56:24;;;;;;;5.00;2.30;;;23.60;1.00;;;;;;5025896;28;20055;-79
2023/09/13 09:58:51;;;;;;;5.50;2.53;;;23.70;1.00;;;;;;5061663;28;20110;-79
2023/09/13 10:01:18;;;;;;;4.90;2.22;;;23.80;1.00;;;;;;5027739;28;20276;-78
2023/09/13 10:03:44;;;;;;;7.53;2.50;;;23.90;1.00;;;;;;5033185;28;20049;-79
2023/09/13 10:06:11;;;;;;;4.50;2.05;;;24.00;1.00;;;;;;5027607;28;20079;-79
2023/09/13 10:08:49;;;;;;;4.68;2.30;;;24.30;1.00;;;;;;5061940;28;20108;-78
2023/09/13 10:11:22;;;;;;;8.77;2.33;;;24.40;1.00;;;;;;5043884;28;20044;-78
2023/09/13 10:13:48;;;;;;;5.63;2.30;;;24.60;1.00;;;;;;5048963;28;20067;-78
2023/09/13 10:16:16;;;;;;;7.25;2.50;;;24.80;1.00;;;;;;5045787;28;20052;-78
2023/09/13 10:18:48;;;;;;;5.13;2.10;;;24.90;1.00;;;;;;5042394;28;20041;-78
2023/09/13 10:21:26;;;;;;;9.68;2.40;;;25.00;1.00;;;;;;5047897;28;20056;-77
2023/09/13 10:24:12;;;;;;;5.85;2.08;;;25.10;99.90;;;;;;5032900;28;20056;-77
2023/09/13 10:26:39;;;;;;;4.82;1.88;;;25.10;99.90;;;;;;5047597;28;20124;-78
2023/09/13 10:29:12;;;;;;;5.82;2.10;;;24.90;99.90;;;;;;5027308;28;20589;-78
2023/09/13 10:31:43;;;;;;;4.13;2.22;;;25.00;99.90;;;;;;5022145;28;20106;-78
2023/09/13 10:34:15;;;;;;;4.57;2.00;;;25.00;99.90;;;;;;5047467;28;20052;-77
2023/09/13 10:36:47;;;;;;;5.18;1.65;;;25.20;99.90;;;;;;5051058;28;20040;-77
2023/09/13 10:39:30;;;;;;;6.63;1.95;;;25.40;99.90;;;;;;5029349;28;20047;-78
2023/09/13 10:42:04;;;;;;;8.13;2.00;;;25.40;1.00;;;;;;5049300;28;20106;-77
2023/09/13 10:44:30;;;;;;;5.90;1.95;;;25.30;52.50;;;;;;5068180;28;20066;-77
2023/09/13 10:46:56;;;;;;;8.48;1.92;;;25.10;99.90;;;;;;5034154;28;20106;-77
2023/09/13 10:49:24;;;;;;;4.95;1.70;;;24.70;99.90;;;;;;5021706;28;20461;-77
2023/09/13 10:51:51;;;;;;;4.70;1.63;;;24.60;99.90;;;;;;5044803;28;20902;-77
2023/09/13 10:54:19;;;;;;;4.35;1.70;;;24.50;99.90;;;;;;5050939;28;20486;-77
2023/09/13 10:56:46;;;;;;;4.00;1.55;;;24.60;99.90;;;;;;5048992;28;20063;-77
2023/09/13 10:59:18;;;;;;;5.38;1.80;;;24.40;99.90;;;;;;5045653;28;20057;-78
2023/09/13 11:01:46;;;;;;;3.45;1.60;;;24.70;99.90;;;;;;5040020;28;20069;-76
2023/09/13 11:04:17;;;;;;;5.57;1.77;;;25.00;99.90;;;;;;5063644;28;20048;-77
2023/09/13 11:06:43;;;;;;;4.32;1.58;;;24.80;89.90;;;;;;5029218;28;20058;-77
2023/09/13 11:09:31;;;;;;;3.60;1.40;;;24.80;99.90;;;;;;5064555;28;20153;-77
2023/09/13 11:11:59;;;;;;;3.78;1.60;;;25.20;99.90;;;;;;5042615;28;20045;-77
2023/09/13 11:14:30;;;;;;;4.63;1.50;;;25.20;1.00;;;;;;5038962;28;20127;-77
2023/09/13 11:17:07;;;;;;;4.30;1.40;;;25.10;99.90;;;;;;5052325;28;20045;-77
2023/09/13 11:19:34;;;;;;;5.18;1.55;;;24.90;1.00;;;;;;5039084;28;20118;-77
2023/09/13 11:22:02;;;;;;;4.80;1.38;;;24.70;99.90;;;;;;5052166;28;20101;-77
2023/09/13 11:24:43;;;;;;;5.82;1.33;;;24.50;99.90;;;;;;5046076;28;20052;-77
2023/09/13 11:27:13;;;;;;;4.50;1.70;;;24.60;99.90;;;;;;5056693;28;20036;-77
2023/09/13 11:29:42;;;;;;;4.47;1.30;;;24.90;99.90;;;;;;5063704;28;20774;-77
2023/09/13 11:32:14;;;;;;;7.50;1.67;;;25.30;1.00;;;;;;5010754;28;20068;-77
2023/09/13 11:34:40;;;;;;;3.67;1.40;;;25.60;99.90;;;;;;5044380;28;20053;-77
2023/09/13 11:37:07;;;;;;;5.07;1.48;;;25.70;99.90;;;;;;5043562;28;20048;-77
2023/09/13 11:39:34;;;;;;;3.65;1.30;;;25.80;99.90;;;;;;5035928;28;20114;-77
2023/09/13 11:42:03;;;;;;;5.25;1.90;;;26.10;1.00;;;;;;5049239;28;20105;-77
2023/09/13 11:44:29;;;;;;;4.07;1.30;;;26.30;58.90;;;;;;5050344;28;20044;-77
2023/09/13 11:46:55;;;;;;;4.80;1.38;;;26.70;1.00;;;;;;5044623;28;20531;-77
2023/09/13 11:49:23;;;;;;;4.47;1.20;;;26.80;9.50;;;;;;5037693;28;20051;-77
2023/09/13 11:51:59;;;;;;;3.22;1.30;;;27.10;99.90;;;;;;5056858;28;20050;-77
2023/09/13 11:54:26;;;;;;;4.03;1.45;;;27.10;1.00;;;;;;5037365;28;20126;-77
2023/09/13 11:56:53;;;;;;;9.20;1.40;;;27.00;99.90;;;;;;5052610;28;20126;-77
2023/09/13 11:59:26;;;;;;;4.68;1.40;;;27.00;99.90;;;;;;5028455;28;20048;-77
2023/09/13 12:01:52;;;;;;;5.05;1.30;;;27.00;1.00;;;;;;5057882;28;20540;-78
2023/09/13 12:04:22;;;;;;;5.20;1.15;;;27.00;99.90;;;;;;5038814;28;20487;-77
2023/09/13 12:06:50;;;;;;;8.10;1.50;;;26.60;99.90;;;;;;5068803;28;20048;-78
2023/09/13 12:09:17;;;;;;;5.13;1.65;;;26.30;10.30;;;;;;5052267;28;20040;-78
2023/09/13 12:11:50;;;;;;;5.15;1.50;;;26.00;1.50;;;;;;5069763;28;20040;-78
2023/09/13 12:14:22;;;;;;;3.50;1.33;;;25.70;99.90;;;;;;5050072;28;20048;-76
2023/09/13 12:16:49;;;;;;;4.72;1.50;;;25.40;99.90;;;;;;5048305;28;20058;-77
2023/09/13 12:19:17;;;;;;;7.07;1.55;;;25.10;99.90;;;;;;5048411;28;20051;-77
2023/09/13 12:21:46;;;;;;;4.40;1.33;;;24.70;1.00;;;;;;5034061;28;20092;-77
2023/09/13 12:24:24;;;;;;;5.40;1.38;;;24.20;99.90;;;;;;5055037;28;20087;-77
2023/09/13 12:26:54;;;;;;;4.18;1.40;;;23.60;1.00;;;;;;5026038;28;20049;-77
2023/09/13 12:29:23;;;;;;;5.18;1.58;;;23.10;1.00;;;;;;5053559;28;20528;-77
2023/09/13 12:31:49;;;;;;;5.70;1.50;;;22.70;1.00;;;;;;5047672;28;20483;-78
2023/09/13 12:34:16;;;;;;;6.40;1.42;;;22.40;1.00;;;;;;5066323;28;20130;-77
2023/09/13 12:36:48;;;;;;;5.35;1.30;;;22.10;1.00;;;;;;5066509;28;20075;-77
2023/09/13 12:39:15;;;;;;;5.95;1.33;;;21.60;1.00;;;;;;5045496;28;20180;-74
2023/09/13 12:41:41;;;;;;;5.15;1.30;;;21.20;9.20;;;;;;5047590;28;20673;-75
2023/09/13 12:44:09;;;;;;;4.45;1.30;;;20.90;21.30;;;;;;5053274;28;20531;-77
2023/09/13 12:46:37;;;;;;;5.28;1.40;;;20.60;29.90;;;;;;5048669;28;20048;-78
2023/09/13 12:49:03;;;;;;;6.72;1.70;;;20.30;34.90;;;;;;5064024;28;20079;-76